sensor_id;sensor_type;location;lat;lon;timestamp;P1;durP1;ratioP1;P2;durP2;ratioP2
3527;SDS011;1778;47.966;7.854;2024-03-06T00:00:31;3.30;;;3.10;;
3527;SDS011;1778;47.966;7.854;2024-03-06T00:01:34;3.03;;;2.93;;
3527;SDS011;1778;47.966;7.854;2024-03-06T00:02:35;3.00;;;2.80;;
3527;SDS011;1778;47.966;7.854;2024-03-06T00:03:37;3.07;;;2.90;;
3527;SDS011;1778;47.966;7.854;2024-03-06T00:04:39;4.80;;;4.17;;
3527;SDS011;1778;47.966;7.854;2024-03-06T00:05:40;3.33;;;3.23;;
3527;SDS011;1778;47.966;7.854;2024-03-06T00:06:41;3.00;;;2.90;;
3527;SDS011;1778;47.966;7.854;2024-03-06T00:07:43;3.27;;;3.10;;
3527;SDS011;1778;47.966;7.854;2024-03-06T00:08:45;2.87;;;2.87;;
3527;SDS011;1778;47.966;7.854;2024-03-06T00:09:46;3.20;;;3.00;;
3527;SDS011;1778;47.966;7.854;2024-03-06T00:10:48;3.17;;;2.87;;
3527;SDS011;1778;47.966;7.854;2024-03-06T00:11:49;3.07;;;3.07;;
3527;SDS011;1778;47.966;7.854;2024-03-06T00:12:52;5.73;;;3.50;;
3527;SDS011;1778;47.966;7.854;2024-03-06T00:13:53;2.80;;;2.70;;
3527;SDS011;1778;47.966;7.854;2024-03-06T00:14:55;3.23;;;3.13;;
3527;SDS011;1778;47.966;7.854;2024-03-06T00:15:57;2.90;;;2.80;;
3527;SDS011;1778;47.966;7.854;2024-03-06T00:16:58;3.90;;;3.60;;
3527;SDS011;1778;47.966;7.854;2024-03-06T00:18:00;3.30;;;3.20;;
3527;SDS011;1778;47.966;7.854;2024-03-06T00:19:02;3.10;;;3.00;;
3527;SDS011;1778;47.966;7.854;2024-03-06T00:20:03;3.40;;;3.30;;
3527;SDS011;1778;47.966;7.854;2024-03-06T00:21:09;2.77;;;2.77;;
3527;SDS011;1778;47.966;7.854;2024-03-06T00:22:11;3.30;;;3.20;;
3527;SDS011;1778;47.966;7.854;2024-03-06T00:23:12;2.60;;;2.60;;
3527;SDS011;1778;47.966;7.854;2024-03-06T00:24:14;3.43;;;3.33;;
3527;SDS011;1778;47.966;7.854;2024-03-06T00:25:16;3.30;;;3.20;;
3527;SDS011;1778;47.966;7.854;2024-03-06T00:26:18;3.43;;;3.33;;
3527;SDS011;1778;47.966;7.854;2024-03-06T00:27:19;3.43;;;3.23;;
3527;SDS011;1778;47.966;7.854;2024-03-06T00:28:21;4.03;;;3.20;;
3527;SDS011;1778;47.966;7.854;2024-03-06T00:29:22;2.97;;;2.87;;
3527;SDS011;1778;47.966;7.854;2024-03-06T00:30:24;2.83;;;2.70;;
3527;SDS011;1778;47.966;7.854;2024-03-06T00:31:25;2.80;;;2.70;;
3527;SDS011;1778;47.966;7.854;2024-03-06T00:32:27;2.90;;;2.70;;
3527;SDS011;1778;47.966;7.854;2024-03-06T00:33:29;6.00;;;3.73;;
3527;SDS011;1778;47.966;7.854;2024-03-06T00:34:31;3.40;;;3.20;;
3527;SDS011;1778;47.966;7.854;2024-03-06T00:35:33;5.60;;;3.03;;
3527;SDS011;1778;47.966;7.854;2024-03-06T00:36:34;2.83;;;2.73;;
3527;SDS011;1778;47.966;7.854;2024-03-06T00:37:36;3.60;;;3.10;;
3527;SDS011;1778;47.966;7.854;2024-03-06T00:38:37;3.50;;;3.40;;
3527;SDS011;1778;47.966;7.854;2024-03-06T00:39:38;3.33;;;3.03;;
3527;SDS011;1778;47.966;7.854;2024-03-06T00:40:40;5.03;;;3.50;;
3527;SDS011;1778;47.966;7.854;2024-03-06T00:41:41;3.70;;;3.60;;
3527;SDS011;1778;47.966;7.854;2024-03-06T00:42:43;5.83;;;3.30;;
3527;SDS011;1778;47.966;7.854;2024-03-06T00:43:45;3.40;;;3.30;;
3527;SDS011;1778;47.966;7.854;2024-03-06T00:44:47;3.80;;;3.70;;
3527;SDS011;1778;47.966;7.854;2024-03-06T00:45:48;3.10;;;3.00;;
3527;SDS011;1778;47.966;7.854;2024-03-06T00:46:49;3.27;;;3.17;;
3527;SDS011;1778;47.966;7.854;2024-03-06T00:47:51;3.20;;;3.10;;
3527;SDS011;1778;47.966;7.854;2024-03-06T00:48:52;3.40;;;3.13;;
3527;SDS011;1778;47.966;7.854;2024-03-06T00:49:54;3.00;;;3.00;;
3527;SDS011;1778;47.966;7.854;2024-03-06T00:50:56;3.17;;;3.10;;
3527;SDS011;1778;47.966;7.854;2024-03-06T00:51:57;3.00;;;3.00;;
3527;SDS011;1778;47.966;7.854;2024-03-06T00:52:59;3.17;;;3.07;;
3527;SDS011;1778;47.966;7.854;2024-03-06T00:54:00;3.67;;;3.47;;
3527;SDS011;1778;47.966;7.854;2024-03-06T00:55:02;3.03;;;3.03;;
3527;SDS011;1778;47.966;7.854;2024-03-06T00:56:04;3.17;;;3.07;;
3527;SDS011;1778;47.966;7.854;2024-03-06T00:57:06;3.87;;;3.67;;
3527;SDS011;1778;47.966;7.854;2024-03-06T00:58:10;2.90;;;2.80;;
3527;SDS011;1778;47.966;7.854;2024-03-06T00:59:12;3.90;;;3.20;;
3527;SDS011;1778;47.966;7.854;2024-03-06T01:00:14;3.90;;;3.60;;
3527;SDS011;1778;47.966;7.854;2024-03-06T01:01:17;2.93;;;2.87;;
3527;SDS011;1778;47.966;7.854;2024-03-06T01:02:18;3.27;;;3.07;;
3527;SDS011;1778;47.966;7.854;2024-03-06T01:03:20;3.00;;;2.90;;
3527;SDS011;1778;47.966;7.854;2024-03-06T01:04:22;3.33;;;3.23;;
3527;SDS011;1778;47.966;7.854;2024-03-06T01:05:24;3.33;;;3.17;;
3527;SDS011;1778;47.966;7.854;2024-03-06T01:06:25;6.47;;;3.13;;
3527;SDS011;1778;47.966;7.854;2024-03-06T01:07:27;3.37;;;3.30;;
3527;SDS011;1778;47.966;7.854;2024-03-06T01:08:28;3.30;;;3.20;;
3527;SDS011;1778;47.966;7.854;2024-03-06T01:09:31;3.60;;;3.50;;
3527;SDS011;1778;47.966;7.854;2024-03-06T01:10:33;6.93;;;3.47;;
3527;SDS011;1778;47.966;7.854;2024-03-06T01:11:35;3.10;;;3.00;;
3527;SDS011;1778;47.966;7.854;2024-03-06T01:12:36;3.43;;;3.33;;
3527;SDS011;1778;47.966;7.854;2024-03-06T01:13:38;3.63;;;3.53;;
3527;SDS011;1778;47.966;7.854;2024-03-06T01:14:40;3.60;;;3.50;;
3527;SDS011;1778;47.966;7.854;2024-03-06T01:15:41;3.90;;;3.60;;
3527;SDS011;1778;47.966;7.854;2024-03-06T01:16:43;3.10;;;3.00;;
3527;SDS011;1778;47.966;7.854;2024-03-06T01:17:44;4.53;;;4.33;;
3527;SDS011;1778;47.966;7.854;2024-03-06T01:18:47;3.33;;;3.13;;
3527;SDS011;1778;47.966;7.854;2024-03-06T01:19:49;3.03;;;2.93;;
3527;SDS011;1778;47.966;7.854;2024-03-06T01:20:51;2.90;;;2.70;;
3527;SDS011;1778;47.966;7.854;2024-03-06T01:21:52;3.10;;;3.10;;
3527;SDS011;1778;47.966;7.854;2024-03-06T01:22:54;3.63;;;3.43;;
3527;SDS011;1778;47.966;7.854;2024-03-06T01:23:55;3.50;;;3.10;;
3527;SDS011;1778;47.966;7.854;2024-03-06T01:24:57;2.73;;;2.63;;
3527;SDS011;1778;47.966;7.854;2024-03-06T01:25:58;3.20;;;3.10;;
3527;SDS011;1778;47.966;7.854;2024-03-06T01:27:00;3.80;;;3.20;;
3527;SDS011;1778;47.966;7.854;2024-03-06T01:28:03;3.20;;;2.93;;
3527;SDS011;1778;47.966;7.854;2024-03-06T01:29:05;3.23;;;3.13;;
3527;SDS011;1778;47.966;7.854;2024-03-06T01:30:07;5.13;;;3.50;;
3527;SDS011;1778;47.966;7.854;2024-03-06T01:31:09;3.00;;;2.90;;
3527;SDS011;1778;47.966;7.854;2024-03-06T01:32:10;3.50;;;3.30;;
3527;SDS011;1778;47.966;7.854;2024-03-06T01:33:12;3.03;;;2.93;;
3527;SDS011;1778;47.966;7.854;2024-03-06T01:34:14;3.20;;;3.10;;
3527;SDS011;1778;47.966;7.854;2024-03-06T01:35:15;3.47;;;3.17;;
3527;SDS011;1778;47.966;7.854;2024-03-06T01:36:17;3.73;;;3.63;;
3527;SDS011;1778;47.966;7.854;2024-03-06T01:37:19;3.83;;;3.30;;
3527;SDS011;1778;47.966;7.854;2024-03-06T01:38:20;2.67;;;2.67;;
3527;SDS011;1778;47.966;7.854;2024-03-06T01:39:21;3.43;;;3.27;;
3527;SDS011;1778;47.966;7.854;2024-03-06T01:40:23;3.20;;;3.10;;
3527;SDS011;1778;47.966;7.854;2024-03-06T01:41:25;2.77;;;2.73;;
3527;SDS011;1778;47.966;7.854;2024-03-06T01:42:26;7.40;;;2.80;;
3527;SDS011;1778;47.966;7.854;2024-03-06T01:43:27;3.33;;;3.23;;
3527;SDS011;1778;47.966;7.854;2024-03-06T01:44:29;3.40;;;3.20;;
3527;SDS011;1778;47.966;7.854;2024-03-06T01:45:31;4.03;;;3.10;;
3527;SDS011;1778;47.966;7.854;2024-03-06T01:46:33;7.63;;;3.20;;
3527;SDS011;1778;47.966;7.854;2024-03-06T01:47:35;3.80;;;3.10;;
3527;SDS011;1778;47.966;7.854;2024-03-06T01:48:37;3.43;;;3.33;;
3527;SDS011;1778;47.966;7.854;2024-03-06T01:49:39;3.10;;;2.90;;
3527;SDS011;1778;47.966;7.854;2024-03-06T01:50:45;2.93;;;2.83;;
3527;SDS011;1778;47.966;7.854;2024-03-06T01:51:51;3.10;;;3.00;;
3527;SDS011;1778;47.966;7.854;2024-03-06T01:52:54;3.13;;;3.03;;
3527;SDS011;1778;47.966;7.854;2024-03-06T01:53:56;5.13;;;3.27;;
3527;SDS011;1778;47.966;7.854;2024-03-06T01:54:58;2.80;;;2.80;;
3527;SDS011;1778;47.966;7.854;2024-03-06T01:56:00;3.07;;;2.97;;
3527;SDS011;1778;47.966;7.854;2024-03-06T01:57:05;3.80;;;3.07;;
3527;SDS011;1778;47.966;7.854;2024-03-06T01:58:08;2.83;;;2.73;;
3527;SDS011;1778;47.966;7.854;2024-03-06T01:59:10;3.30;;;3.20;;
3527;SDS011;1778;47.966;7.854;2024-03-06T02:00:31;3.27;;;3.17;;
3527;SDS011;1778;47.966;7.854;2024-03-06T02:01:34;3.20;;;3.10;;
3527;SDS011;1778;47.966;7.854;2024-03-06T02:02:36;2.87;;;2.77;;
3527;SDS011;1778;47.966;7.854;2024-03-06T02:03:38;3.10;;;3.00;;
3527;SDS011;1778;47.966;7.854;2024-03-06T02:04:40;3.63;;;3.37;;
3527;SDS011;1778;47.966;7.854;2024-03-06T02:05:41;2.90;;;2.90;;
3527;SDS011;1778;47.966;7.854;2024-03-06T02:06:44;3.10;;;3.00;;
3527;SDS011;1778;47.966;7.854;2024-03-06T02:07:47;3.43;;;3.37;;
3527;SDS011;1778;47.966;7.854;2024-03-06T02:08:49;2.90;;;2.80;;
3527;SDS011;1778;47.966;7.854;2024-03-06T02:09:52;3.43;;;3.33;;
3527;SDS011;1778;47.966;7.854;2024-03-06T02:10:54;3.80;;;3.17;;
3527;SDS011;1778;47.966;7.854;2024-03-06T02:11:56;3.43;;;3.23;;
3527;SDS011;1778;47.966;7.854;2024-03-06T02:12:57;3.30;;;3.20;;
3527;SDS011;1778;47.966;7.854;2024-03-06T02:13:59;2.83;;;2.83;;
3527;SDS011;1778;47.966;7.854;2024-03-06T02:15:00;3.60;;;3.60;;
3527;SDS011;1778;47.966;7.854;2024-03-06T02:16:04;3.50;;;3.40;;
3527;SDS011;1778;47.966;7.854;2024-03-06T02:17:05;3.33;;;3.13;;
3527;SDS011;1778;47.966;7.854;2024-03-06T02:18:08;3.20;;;3.10;;
3527;SDS011;1778;47.966;7.854;2024-03-06T02:19:10;3.47;;;3.40;;
3527;SDS011;1778;47.966;7.854;2024-03-06T02:20:12;3.77;;;3.67;;
3527;SDS011;1778;47.966;7.854;2024-03-06T02:21:15;4.50;;;2.87;;
3527;SDS011;1778;47.966;7.854;2024-03-06T02:22:17;3.60;;;3.50;;
3527;SDS011;1778;47.966;7.854;2024-03-06T02:23:18;3.97;;;3.77;;
3527;SDS011;1778;47.966;7.854;2024-03-06T02:24:21;3.20;;;3.00;;
3527;SDS011;1778;47.966;7.854;2024-03-06T02:25:22;3.13;;;3.03;;
3527;SDS011;1778;47.966;7.854;2024-03-06T02:26:24;3.40;;;3.20;;
3527;SDS011;1778;47.966;7.854;2024-03-06T02:27:26;3.63;;;3.27;;
3527;SDS011;1778;47.966;7.854;2024-03-06T02:28:27;3.00;;;3.00;;
3527;SDS011;1778;47.966;7.854;2024-03-06T02:29:28;2.70;;;2.70;;
3527;SDS011;1778;47.966;7.854;2024-03-06T02:30:30;3.20;;;3.10;;
3527;SDS011;1778;47.966;7.854;2024-03-06T02:31:37;3.30;;;3.20;;
3527;SDS011;1778;47.966;7.854;2024-03-06T02:32:40;3.20;;;3.10;;
3527;SDS011;1778;47.966;7.854;2024-03-06T02:33:42;3.80;;;3.60;;
3527;SDS011;1778;47.966;7.854;2024-03-06T02:34:45;3.27;;;3.17;;
3527;SDS011;1778;47.966;7.854;2024-03-06T02:35:47;3.07;;;3.07;;
3527;SDS011;1778;47.966;7.854;2024-03-06T02:36:50;4.53;;;4.10;;
3527;SDS011;1778;47.966;7.854;2024-03-06T02:37:53;3.13;;;3.03;;
3527;SDS011;1778;47.966;7.854;2024-03-06T02:38:58;3.53;;;3.43;;
3527;SDS011;1778;47.966;7.854;2024-03-06T02:39:59;3.83;;;3.73;;
3527;SDS011;1778;47.966;7.854;2024-03-06T02:41:01;3.13;;;3.00;;
3527;SDS011;1778;47.966;7.854;2024-03-06T02:42:03;2.83;;;2.83;;
3527;SDS011;1778;47.966;7.854;2024-03-06T02:43:04;2.90;;;2.90;;
3527;SDS011;1778;47.966;7.854;2024-03-06T02:44:06;4.20;;;3.30;;
3527;SDS011;1778;47.966;7.854;2024-03-06T02:45:08;3.10;;;3.00;;
3527;SDS011;1778;47.966;7.854;2024-03-06T02:46:10;3.57;;;3.00;;
3527;SDS011;1778;47.966;7.854;2024-03-06T02:47:11;3.83;;;3.63;;
3527;SDS011;1778;47.966;7.854;2024-03-06T02:48:13;3.27;;;3.10;;
3527;SDS011;1778;47.966;7.854;2024-03-06T02:49:15;3.60;;;3.50;;
3527;SDS011;1778;47.966;7.854;2024-03-06T02:50:17;3.40;;;3.30;;
3527;SDS011;1778;47.966;7.854;2024-03-06T02:51:19;3.47;;;3.37;;
3527;SDS011;1778;47.966;7.854;2024-03-06T02:52:21;3.53;;;3.50;;
3527;SDS011;1778;47.966;7.854;2024-03-06T02:53:24;3.83;;;3.63;;
3527;SDS011;1778;47.966;7.854;2024-03-06T02:54:26;5.70;;;3.60;;
3527;SDS011;1778;47.966;7.854;2024-03-06T02:55:28;3.43;;;3.33;;
3527;SDS011;1778;47.966;7.854;2024-03-06T02:56:29;3.70;;;3.50;;
3527;SDS011;1778;47.966;7.854;2024-03-06T02:57:30;3.83;;;3.73;;
3527;SDS011;1778;47.966;7.854;2024-03-06T02:58:32;3.40;;;3.30;;
3527;SDS011;1778;47.966;7.854;2024-03-06T02:59:35;3.60;;;3.50;;
3527;SDS011;1778;47.966;7.854;2024-03-06T03:00:39;4.20;;;4.10;;
3527;SDS011;1778;47.966;7.854;2024-03-06T03:01:41;3.90;;;3.80;;
3527;SDS011;1778;47.966;7.854;2024-03-06T03:02:43;4.00;;;3.67;;
3527;SDS011;1778;47.966;7.854;2024-03-06T03:03:45;3.77;;;3.77;;
3527;SDS011;1778;47.966;7.854;2024-03-06T03:04:47;4.20;;;4.00;;
3527;SDS011;1778;47.966;7.854;2024-03-06T03:05:49;4.40;;;4.20;;
3527;SDS011;1778;47.966;7.854;2024-03-06T03:06:51;3.73;;;3.63;;
3527;SDS011;1778;47.966;7.854;2024-03-06T03:07:53;3.60;;;3.50;;
3527;SDS011;1778;47.966;7.854;2024-03-06T03:08:54;3.90;;;3.70;;
3527;SDS011;1778;47.966;7.854;2024-03-06T03:09:57;4.00;;;3.90;;
3527;SDS011;1778;47.966;7.854;2024-03-06T03:10:58;4.70;;;4.30;;
3527;SDS011;1778;47.966;7.854;2024-03-06T03:12:00;5.07;;;4.83;;
3527;SDS011;1778;47.966;7.854;2024-03-06T03:13:02;3.87;;;3.70;;
3527;SDS011;1778;47.966;7.854;2024-03-06T03:14:06;4.20;;;4.00;;
3527;SDS011;1778;47.966;7.854;2024-03-06T03:15:08;4.37;;;4.20;;
3527;SDS011;1778;47.966;7.854;2024-03-06T03:16:17;4.10;;;3.93;;
3527;SDS011;1778;47.966;7.854;2024-03-06T03:17:19;3.90;;;3.80;;
3527;SDS011;1778;47.966;7.854;2024-03-06T03:18:20;3.90;;;3.80;;
3527;SDS011;1778;47.966;7.854;2024-03-06T03:19:22;4.30;;;4.17;;
3527;SDS011;1778;47.966;7.854;2024-03-06T03:20:23;4.70;;;4.40;;
3527;SDS011;1778;47.966;7.854;2024-03-06T03:21:24;4.30;;;4.20;;
3527;SDS011;1778;47.966;7.854;2024-03-06T03:22:26;3.90;;;3.80;;
3527;SDS011;1778;47.966;7.854;2024-03-06T03:23:27;4.20;;;3.90;;
3527;SDS011;1778;47.966;7.854;2024-03-06T03:24:29;4.57;;;4.13;;
3527;SDS011;1778;47.966;7.854;2024-03-06T03:25:31;4.23;;;4.13;;
3527;SDS011;1778;47.966;7.854;2024-03-06T03:26:34;4.37;;;4.17;;
3527;SDS011;1778;47.966;7.854;2024-03-06T03:27:38;4.83;;;4.63;;
3527;SDS011;1778;47.966;7.854;2024-03-06T03:28:41;4.33;;;4.23;;
3527;SDS011;1778;47.966;7.854;2024-03-06T03:29:42;4.73;;;4.63;;
3527;SDS011;1778;47.966;7.854;2024-03-06T03:30:45;4.63;;;4.43;;
3527;SDS011;1778;47.966;7.854;2024-03-06T03:31:47;5.10;;;4.93;;
3527;SDS011;1778;47.966;7.854;2024-03-06T03:32:48;4.90;;;4.70;;
3527;SDS011;1778;47.966;7.854;2024-03-06T03:33:50;5.90;;;5.67;;
3527;SDS011;1778;47.966;7.854;2024-03-06T03:34:51;5.73;;;5.20;;
3527;SDS011;1778;47.966;7.854;2024-03-06T03:35:53;5.13;;;4.93;;
3527;SDS011;1778;47.966;7.854;2024-03-06T03:36:54;4.70;;;4.60;;
3527;SDS011;1778;47.966;7.854;2024-03-06T03:37:56;5.30;;;5.07;;
3527;SDS011;1778;47.966;7.854;2024-03-06T03:38:57;5.27;;;5.07;;
3527;SDS011;1778;47.966;7.854;2024-03-06T03:39:59;7.70;;;5.50;;
3527;SDS011;1778;47.966;7.854;2024-03-06T03:41:01;5.83;;;5.30;;
3527;SDS011;1778;47.966;7.854;2024-03-06T03:42:04;6.03;;;5.53;;
3527;SDS011;1778;47.966;7.854;2024-03-06T03:43:07;5.40;;;5.20;;
3527;SDS011;1778;47.966;7.854;2024-03-06T03:44:09;5.10;;;4.90;;
3527;SDS011;1778;47.966;7.854;2024-03-06T03:45:11;5.83;;;5.53;;
3527;SDS011;1778;47.966;7.854;2024-03-06T03:46:12;6.13;;;5.83;;
3527;SDS011;1778;47.966;7.854;2024-03-06T03:47:14;5.77;;;5.47;;
3527;SDS011;1778;47.966;7.854;2024-03-06T03:48:17;6.50;;;5.33;;
3527;SDS011;1778;47.966;7.854;2024-03-06T03:49:18;5.70;;;5.40;;
3527;SDS011;1778;47.966;7.854;2024-03-06T03:50:20;5.33;;;5.20;;
3527;SDS011;1778;47.966;7.854;2024-03-06T03:51:21;4.97;;;4.80;;
3527;SDS011;1778;47.966;7.854;2024-03-06T03:52:22;5.20;;;5.10;;
3527;SDS011;1778;47.966;7.854;2024-03-06T03:53:24;5.20;;;5.00;;
3527;SDS011;1778;47.966;7.854;2024-03-06T03:54:25;5.50;;;5.30;;
3527;SDS011;1778;47.966;7.854;2024-03-06T03:55:27;5.07;;;4.97;;
3527;SDS011;1778;47.966;7.854;2024-03-06T03:56:28;5.87;;;5.67;;
3527;SDS011;1778;47.966;7.854;2024-03-06T03:57:30;5.47;;;5.27;;
3527;SDS011;1778;47.966;7.854;2024-03-06T03:58:31;5.63;;;5.23;;
3527;SDS011;1778;47.966;7.854;2024-03-06T03:59:33;6.13;;;5.70;;
3527;SDS011;1778;47.966;7.854;2024-03-06T04:00:35;5.87;;;5.47;;
3527;SDS011;1778;47.966;7.854;2024-03-06T04:01:39;7.30;;;6.80;;
3527;SDS011;1778;47.966;7.854;2024-03-06T04:02:40;5.60;;;5.40;;
3527;SDS011;1778;47.966;7.854;2024-03-06T04:03:42;6.17;;;5.70;;
3527;SDS011;1778;47.966;7.854;2024-03-06T04:04:45;5.43;;;5.23;;
3527;SDS011;1778;47.966;7.854;2024-03-06T04:05:47;5.53;;;5.37;;
3527;SDS011;1778;47.966;7.854;2024-03-06T04:06:49;6.20;;;5.90;;
3527;SDS011;1778;47.966;7.854;2024-03-06T04:07:50;5.60;;;5.40;;
3527;SDS011;1778;47.966;7.854;2024-03-06T04:08:52;5.77;;;5.47;;
3527;SDS011;1778;47.966;7.854;2024-03-06T04:09:53;6.40;;;6.10;;
3527;SDS011;1778;47.966;7.854;2024-03-06T04:10:54;5.40;;;5.20;;
3527;SDS011;1778;47.966;7.854;2024-03-06T04:11:56;5.60;;;5.40;;
3527;SDS011;1778;47.966;7.854;2024-03-06T04:12:57;11.70;;;6.37;;
3527;SDS011;1778;47.966;7.854;2024-03-06T04:14:00;5.60;;;5.30;;
3527;SDS011;1778;47.966;7.854;2024-03-06T04:15:02;6.17;;;5.97;;
3527;SDS011;1778;47.966;7.854;2024-03-06T04:16:05;5.57;;;5.30;;
3527;SDS011;1778;47.966;7.854;2024-03-06T04:17:06;6.20;;;5.60;;
3527;SDS011;1778;47.966;7.854;2024-03-06T04:18:08;5.20;;;5.10;;
3527;SDS011;1778;47.966;7.854;2024-03-06T04:19:10;5.20;;;4.80;;
3527;SDS011;1778;47.966;7.854;2024-03-06T04:20:11;5.37;;;5.17;;
3527;SDS011;1778;47.966;7.854;2024-03-06T04:21:13;5.47;;;5.27;;
3527;SDS011;1778;47.966;7.854;2024-03-06T04:22:19;5.70;;;5.50;;
3527;SDS011;1778;47.966;7.854;2024-03-06T04:23:21;5.77;;;5.40;;
3527;SDS011;1778;47.966;7.854;2024-03-06T04:24:22;5.10;;;4.80;;
3527;SDS011;1778;47.966;7.854;2024-03-06T04:25:23;5.27;;;5.13;;
3527;SDS011;1778;47.966;7.854;2024-03-06T04:26:25;5.33;;;5.07;;
3527;SDS011;1778;47.966;7.854;2024-03-06T04:27:27;5.23;;;4.97;;
3527;SDS011;1778;47.966;7.854;2024-03-06T04:28:28;5.60;;;5.40;;
3527;SDS011;1778;47.966;7.854;2024-03-06T04:29:30;5.20;;;5.00;;
3527;SDS011;1778;47.966;7.854;2024-03-06T04:30:31;5.60;;;5.20;;
3527;SDS011;1778;47.966;7.854;2024-03-06T04:31:34;5.57;;;5.27;;
3527;SDS011;1778;47.966;7.854;2024-03-06T04:32:36;5.80;;;5.40;;
3527;SDS011;1778;47.966;7.854;2024-03-06T04:33:37;5.50;;;5.30;;
3527;SDS011;1778;47.966;7.854;2024-03-06T04:34:39;5.27;;;5.07;;
3527;SDS011;1778;47.966;7.854;2024-03-06T04:35:41;5.63;;;5.23;;
3527;SDS011;1778;47.966;7.854;2024-03-06T04:36:43;5.20;;;5.00;;
3527;SDS011;1778;47.966;7.854;2024-03-06T04:37:44;5.07;;;4.87;;
3527;SDS011;1778;47.966;7.854;2024-03-06T04:38:46;5.20;;;5.00;;
3527;SDS011;1778;47.966;7.854;2024-03-06T04:39:48;5.60;;;5.40;;
3527;SDS011;1778;47.966;7.854;2024-03-06T04:40:49;5.00;;;4.60;;
3527;SDS011;1778;47.966;7.854;2024-03-06T04:41:51;5.00;;;4.70;;
3527;SDS011;1778;47.966;7.854;2024-03-06T04:42:52;5.50;;;5.20;;
3527;SDS011;1778;47.966;7.854;2024-03-06T04:43:54;5.53;;;5.23;;
3527;SDS011;1778;47.966;7.854;2024-03-06T04:44:56;5.67;;;5.47;;
3527;SDS011;1778;47.966;7.854;2024-03-06T04:45:57;5.60;;;5.30;;
3527;SDS011;1778;47.966;7.854;2024-03-06T04:46:59;5.03;;;4.93;;
3527;SDS011;1778;47.966;7.854;2024-03-06T04:48:01;5.27;;;5.07;;
3527;SDS011;1778;47.966;7.854;2024-03-06T04:49:02;4.97;;;4.77;;
3527;SDS011;1778;47.966;7.854;2024-03-06T04:50:07;5.23;;;5.03;;
3527;SDS011;1778;47.966;7.854;2024-03-06T04:51:12;5.03;;;4.73;;
3527;SDS011;1778;47.966;7.854;2024-03-06T04:52:14;4.90;;;4.70;;
3527;SDS011;1778;47.966;7.854;2024-03-06T04:53:15;5.93;;;5.50;;
3527;SDS011;1778;47.966;7.854;2024-03-06T04:54:17;5.37;;;5.17;;
3527;SDS011;1778;47.966;7.854;2024-03-06T04:55:19;4.83;;;4.73;;
3527;SDS011;1778;47.966;7.854;2024-03-06T04:56:24;5.23;;;5.03;;
3527;SDS011;1778;47.966;7.854;2024-03-06T04:57:25;4.90;;;4.80;;
3527;SDS011;1778;47.966;7.854;2024-03-06T04:58:27;5.80;;;5.50;;
3527;SDS011;1778;47.966;7.854;2024-03-06T04:59:29;5.53;;;5.00;;
3527;SDS011;1778;47.966;7.854;2024-03-06T05:00:30;5.40;;;5.23;;
3527;SDS011;1778;47.966;7.854;2024-03-06T05:01:32;4.80;;;4.70;;
3527;SDS011;1778;47.966;7.854;2024-03-06T05:02:33;6.23;;;5.93;;
3527;SDS011;1778;47.966;7.854;2024-03-06T05:03:54;5.33;;;4.93;;
3527;SDS011;1778;47.966;7.854;2024-03-06T05:05:13;6.07;;;5.77;;
3527;SDS011;1778;47.966;7.854;2024-03-06T05:06:32;5.23;;;5.03;;
3527;SDS011;1778;47.966;7.854;2024-03-06T05:07:51;4.77;;;4.57;;
3527;SDS011;1778;47.966;7.854;2024-03-06T05:09:10;5.40;;;5.20;;
3527;SDS011;1778;47.966;7.854;2024-03-06T05:10:29;5.20;;;5.00;;
3527;SDS011;1778;47.966;7.854;2024-03-06T05:11:48;5.10;;;4.90;;
3527;SDS011;1778;47.966;7.854;2024-03-06T05:13:08;5.37;;;5.17;;
3527;SDS011;1778;47.966;7.854;2024-03-06T05:14:27;4.80;;;4.70;;
3527;SDS011;1778;47.966;7.854;2024-03-06T05:15:46;5.53;;;5.07;;
3527;SDS011;1778;47.966;7.854;2024-03-06T05:17:05;5.00;;;4.90;;
3527;SDS011;1778;47.966;7.854;2024-03-06T05:18:24;5.00;;;4.90;;
3527;SDS011;1778;47.966;7.854;2024-03-06T05:19:44;4.63;;;4.53;;
3527;SDS011;1778;47.966;7.854;2024-03-06T05:21:04;4.57;;;4.47;;
3527;SDS011;1778;47.966;7.854;2024-03-06T05:22:23;5.00;;;4.73;;
3527;SDS011;1778;47.966;7.854;2024-03-06T05:23:41;5.97;;;5.53;;
3527;SDS011;1778;47.966;7.854;2024-03-06T05:25:00;5.30;;;5.10;;
3527;SDS011;1778;47.966;7.854;2024-03-06T05:26:19;5.77;;;5.53;;
3527;SDS011;1778;47.966;7.854;2024-03-06T05:27:38;6.20;;;6.00;;
3527;SDS011;1778;47.966;7.854;2024-03-06T05:28:57;5.57;;;5.37;;
3527;SDS011;1778;47.966;7.854;2024-03-06T05:30:16;6.17;;;5.97;;
3527;SDS011;1778;47.966;7.854;2024-03-06T05:31:35;7.20;;;6.77;;
3527;SDS011;1778;47.966;7.854;2024-03-06T05:32:55;6.00;;;5.80;;
3527;SDS011;1778;47.966;7.854;2024-03-06T05:34:15;7.00;;;6.50;;
3527;SDS011;1778;47.966;7.854;2024-03-06T05:35:33;7.00;;;6.60;;
3527;SDS011;1778;47.966;7.854;2024-03-06T05:36:52;5.90;;;5.70;;
3527;SDS011;1778;47.966;7.854;2024-03-06T05:38:11;6.13;;;5.73;;
3527;SDS011;1778;47.966;7.854;2024-03-06T05:39:30;5.97;;;5.77;;
3527;SDS011;1778;47.966;7.854;2024-03-06T05:40:50;6.00;;;5.67;;
3527;SDS011;1778;47.966;7.854;2024-03-06T05:42:09;6.13;;;5.90;;
3527;SDS011;1778;47.966;7.854;2024-03-06T05:43:28;5.53;;;5.33;;
3527;SDS011;1778;47.966;7.854;2024-03-06T05:44:47;5.90;;;5.70;;
3527;SDS011;1778;47.966;7.854;2024-03-06T05:46:09;6.30;;;6.10;;
3527;SDS011;1778;47.966;7.854;2024-03-06T05:47:27;6.83;;;6.53;;
3527;SDS011;1778;47.966;7.854;2024-03-06T05:48:46;6.37;;;6.03;;
3527;SDS011;1778;47.966;7.854;2024-03-06T05:50:05;6.23;;;6.03;;
3527;SDS011;1778;47.966;7.854;2024-03-06T05:51:25;6.00;;;5.90;;
3527;SDS011;1778;47.966;7.854;2024-03-06T05:52:43;7.53;;;6.87;;
3527;SDS011;1778;47.966;7.854;2024-03-06T05:54:03;6.30;;;6.10;;
3527;SDS011;1778;47.966;7.854;2024-03-06T05:55:24;6.67;;;6.37;;
3527;SDS011;1778;47.966;7.854;2024-03-06T05:56:42;5.87;;;5.67;;
3527;SDS011;1778;47.966;7.854;2024-03-06T05:58:02;6.57;;;6.37;;
3527;SDS011;1778;47.966;7.854;2024-03-06T05:59:12;7.17;;;6.87;;
3527;SDS011;1778;47.966;7.854;2024-03-06T06:00:14;6.30;;;6.13;;
3527;SDS011;1778;47.966;7.854;2024-03-06T06:01:18;6.57;;;6.33;;
3527;SDS011;1778;47.966;7.854;2024-03-06T06:02:21;6.40;;;6.10;;
3527;SDS011;1778;47.966;7.854;2024-03-06T06:03:23;6.90;;;6.60;;
3527;SDS011;1778;47.966;7.854;2024-03-06T06:04:24;6.07;;;5.87;;
3527;SDS011;1778;47.966;7.854;2024-03-06T06:05:26;6.00;;;5.70;;
3527;SDS011;1778;47.966;7.854;2024-03-06T06:06:28;6.60;;;6.30;;
3527;SDS011;1778;47.966;7.854;2024-03-06T06:07:34;6.47;;;6.20;;
3527;SDS011;1778;47.966;7.854;2024-03-06T06:08:39;7.13;;;6.73;;
3527;SDS011;1778;47.966;7.854;2024-03-06T06:09:41;6.53;;;6.30;;
3527;SDS011;1778;47.966;7.854;2024-03-06T06:10:43;6.80;;;6.20;;
3527;SDS011;1778;47.966;7.854;2024-03-06T06:11:45;6.97;;;6.57;;
3527;SDS011;1778;47.966;7.854;2024-03-06T06:12:48;16.03;;;12.23;;
3527;SDS011;1778;47.966;7.854;2024-03-06T06:13:50;6.57;;;6.27;;
3527;SDS011;1778;47.966;7.854;2024-03-06T06:14:52;6.57;;;6.30;;
3527;SDS011;1778;47.966;7.854;2024-03-06T06:15:53;6.70;;;6.50;;
3527;SDS011;1778;47.966;7.854;2024-03-06T06:16:58;6.17;;;5.87;;
3527;SDS011;1778;47.966;7.854;2024-03-06T06:17:59;6.53;;;6.13;;
3527;SDS011;1778;47.966;7.854;2024-03-06T06:19:04;5.63;;;5.53;;
3527;SDS011;1778;47.966;7.854;2024-03-06T06:20:07;5.87;;;5.70;;
3527;SDS011;1778;47.966;7.854;2024-03-06T06:21:10;6.87;;;6.57;;
3527;SDS011;1778;47.966;7.854;2024-03-06T06:22:12;6.60;;;6.30;;
3527;SDS011;1778;47.966;7.854;2024-03-06T06:23:13;6.10;;;5.90;;
3527;SDS011;1778;47.966;7.854;2024-03-06T06:24:15;6.70;;;6.33;;
3527;SDS011;1778;47.966;7.854;2024-03-06T06:25:16;6.67;;;6.37;;
3527;SDS011;1778;47.966;7.854;2024-03-06T06:26:18;6.37;;;6.07;;
3527;SDS011;1778;47.966;7.854;2024-03-06T06:27:19;6.60;;;6.20;;
3527;SDS011;1778;47.966;7.854;2024-03-06T06:28:20;6.50;;;6.20;;
3527;SDS011;1778;47.966;7.854;2024-03-06T06:29:23;6.50;;;6.30;;
3527;SDS011;1778;47.966;7.854;2024-03-06T06:30:25;8.00;;;6.50;;
3527;SDS011;1778;47.966;7.854;2024-03-06T06:31:26;6.33;;;6.03;;
3527;SDS011;1778;47.966;7.854;2024-03-06T06:32:28;6.37;;;6.10;;
3527;SDS011;1778;47.966;7.854;2024-03-06T06:33:29;6.27;;;6.07;;
3527;SDS011;1778;47.966;7.854;2024-03-06T06:34:31;5.80;;;5.63;;
3527;SDS011;1778;47.966;7.854;2024-03-06T06:35:32;6.10;;;5.80;;
3527;SDS011;1778;47.966;7.854;2024-03-06T06:36:34;5.83;;;5.60;;
3527;SDS011;1778;47.966;7.854;2024-03-06T06:37:39;7.10;;;6.80;;